CheckWX is a tool to help pilots better visualize weather data.  It is not intended as a substitute for an official pre-flight weather briefing.

07:12:47 UTC

KSMO TAF
Santa Monica Municipal Airport
Santa Monica, California, USA
KSMO 180532Z 1806/1906 VRB03KT P6SM OVC015 FM181100 VRB03KT 5SM BR OVC008 FM181600 23005KT P6SM OVC015 FM182200 23008KT P6SM SCT022 FM190400 VRB03KT P6SM BKN018

Jun-18@
06:00 UTC

Jun-18 @ 06:00 UTC

Jun-18@
11:00 UTC

Jun-18 @ 11:00 UTC

KSMO 180532Z 1806/1906 VRB03KT P6SM OVC015
Wind
  • Variable at 3 KTS
Cloud Levels
  • Overcast at 1,500' AGL

Jun-18@
11:00 UTC

Jun-18 @ 11:00 UTC

Jun-18@
16:00 UTC

Jun-18 @ 16:00 UTC

FM181100 VRB03KT 5SM BR OVC008

From

From Standard forecast or significant change

Wind
  • Variable at 3 KTS
Conditions
Mist
Cloud Levels
  • Overcast at 800' AGL

Jun-18@
16:00 UTC

Jun-18 @ 16:00 UTC

Jun-18@
22:00 UTC

Jun-18 @ 22:00 UTC

FM181600 23005KT P6SM OVC015

From

From Standard forecast or significant change

Wind
  • 230° at 5 KTS
Cloud Levels
  • Overcast at 1,500' AGL

Jun-18@
22:00 UTC

Jun-18 @ 22:00 UTC

Jun-19@
04:00 UTC

Jun-19 @ 04:00 UTC

FM182200 23008KT P6SM SCT022

From

From Standard forecast or significant change

Wind
  • 230° at 8 KTS
Cloud Levels
  • Scattered at 2,200' AGL

Jun-19@
04:00 UTC

Jun-19 @ 04:00 UTC

Jun-19@
06:00 UTC

Jun-19 @ 06:00 UTC

FM190400 VRB03KT P6SM BKN018

From

From Standard forecast or significant change

Wind
  • Variable at 3 KTS
Cloud Levels
  • Broken at 1,800' AGL